sensor_id;sensor_type;location;lat;lon;timestamp;P1;durP1;ratioP1;P2;durP2;ratioP2
6342;SDS011;3204;42.698;23.298;2022-09-03T00:00:34;6.00;;;5.60;;
6342;SDS011;3204;42.698;23.298;2022-09-03T00:03:07;6.90;;;6.50;;
6342;SDS011;3204;42.698;23.298;2022-09-03T00:10:56;7.03;;;5.78;;
6342;SDS011;3204;42.698;23.298;2022-09-03T00:13:30;6.50;;;6.00;;
6342;SDS011;3204;42.698;23.298;2022-09-03T00:16:00;6.13;;;5.53;;
6342;SDS011;3204;42.698;23.298;2022-09-03T00:18:35;6.45;;;5.93;;
6342;SDS011;3204;42.698;23.298;2022-09-03T00:21:13;6.30;;;5.90;;
6342;SDS011;3204;42.698;23.298;2022-09-03T00:23:43;5.30;;;4.90;;
6342;SDS011;3204;42.698;23.298;2022-09-03T00:28:41;6.00;;;5.57;;
6342;SDS011;3204;42.698;23.298;2022-09-03T00:31:27;6.07;;;5.68;;
6342;SDS011;3204;42.698;23.298;2022-09-03T00:33:58;6.32;;;5.72;;
6342;SDS011;3204;42.698;23.298;2022-09-03T00:36:29;6.10;;;5.80;;
6342;SDS011;3204;42.698;23.298;2022-09-03T00:39:06;5.57;;;5.28;;
6342;SDS011;3204;42.698;23.298;2022-09-03T00:41:37;5.55;;;5.25;;
6342;SDS011;3204;42.698;23.298;2022-09-03T00:58:03;6.10;;;5.63;;
6342;SDS011;3204;42.698;23.298;2022-09-03T01:00:30;5.35;;;5.00;;
6342;SDS011;3204;42.698;23.298;2022-09-03T01:09:32;5.40;;;5.00;;
6342;SDS011;3204;42.698;23.298;2022-09-03T01:12:00;7.13;;;5.53;;
6342;SDS011;3204;42.698;23.298;2022-09-03T01:17:30;6.07;;;5.57;;
6342;SDS011;3204;42.698;23.298;2022-09-03T01:33:59;7.63;;;5.90;;
6342;SDS011;3204;42.698;23.298;2022-09-03T01:36:40;6.38;;;5.88;;
6342;SDS011;3204;42.698;23.298;2022-09-03T01:42:41;5.43;;;5.13;;
6342;SDS011;3204;42.698;23.298;2022-09-03T01:45:26;6.05;;;5.55;;
6342;SDS011;3204;42.698;23.298;2022-09-03T01:51:17;6.22;;;5.72;;
6342;SDS011;3204;42.698;23.298;2022-09-03T01:59:10;6.13;;;5.72;;
6342;SDS011;3204;42.698;23.298;2022-09-03T02:01:46;5.95;;;5.55;;
6342;SDS011;3204;42.698;23.298;2022-09-03T02:04:18;6.40;;;5.90;;
6342;SDS011;3204;42.698;23.298;2022-09-03T02:06:47;7.32;;;6.63;;
6342;SDS011;3204;42.698;23.298;2022-09-03T02:09:14;7.07;;;6.38;;
6342;SDS011;3204;42.698;23.298;2022-09-03T02:11:41;6.40;;;6.00;;
6342;SDS011;3204;42.698;23.298;2022-09-03T02:14:11;6.20;;;5.90;;
6342;SDS011;3204;42.698;23.298;2022-09-03T02:16:37;6.72;;;6.32;;
6342;SDS011;3204;42.698;23.298;2022-09-03T02:19:10;6.60;;;6.10;;
6342;SDS011;3204;42.698;23.298;2022-09-03T02:21:42;6.63;;;6.03;;
6342;SDS011;3204;42.698;23.298;2022-09-03T02:24:14;6.88;;;5.82;;
6342;SDS011;3204;42.698;23.298;2022-09-03T02:26:39;6.70;;;6.30;;
6342;SDS011;3204;42.698;23.298;2022-09-03T02:29:05;6.57;;;6.20;;
6342;SDS011;3204;42.698;23.298;2022-09-03T02:31:31;7.13;;;6.60;;
6342;SDS011;3204;42.698;23.298;2022-09-03T02:33:57;6.82;;;6.32;;
6342;SDS011;3204;42.698;23.298;2022-09-03T02:36:27;7.47;;;6.93;;
6342;SDS011;3204;42.698;23.298;2022-09-03T02:38:56;7.20;;;6.80;;
6342;SDS011;3204;42.698;23.298;2022-09-03T02:41:22;6.47;;;6.07;;
6342;SDS011;3204;42.698;23.298;2022-09-03T02:43:53;7.07;;;6.68;;
6342;SDS011;3204;42.698;23.298;2022-09-03T02:46:23;7.57;;;6.97;;
6342;SDS011;3204;42.698;23.298;2022-09-03T02:48:53;6.50;;;6.00;;
6342;SDS011;3204;42.698;23.298;2022-09-03T02:51:18;6.80;;;6.40;;
6342;SDS011;3204;42.698;23.298;2022-09-03T02:53:44;7.68;;;7.10;;
6342;SDS011;3204;42.698;23.298;2022-09-03T02:56:10;8.02;;;7.32;;
6342;SDS011;3204;42.698;23.298;2022-09-03T02:58:36;7.05;;;6.55;;
6342;SDS011;3204;42.698;23.298;2022-09-03T03:01:02;7.72;;;7.15;;
6342;SDS011;3204;42.698;23.298;2022-09-03T03:03:27;7.30;;;6.75;;
6342;SDS011;3204;42.698;23.298;2022-09-03T03:05:57;7.32;;;6.82;;
6342;SDS011;3204;42.698;23.298;2022-09-03T03:08:26;7.85;;;7.30;;
6342;SDS011;3204;42.698;23.298;2022-09-03T03:10:53;7.72;;;6.97;;
6342;SDS011;3204;42.698;23.298;2022-09-03T03:13:27;7.80;;;7.30;;
6342;SDS011;3204;42.698;23.298;2022-09-03T03:15:57;8.20;;;7.47;;
6342;SDS011;3204;42.698;23.298;2022-09-03T03:18:24;7.65;;;6.90;;
6342;SDS011;3204;42.698;23.298;2022-09-03T03:20:50;6.78;;;6.38;;
6342;SDS011;3204;42.698;23.298;2022-09-03T03:23:16;7.22;;;6.80;;
6342;SDS011;3204;42.698;23.298;2022-09-03T03:25:41;9.77;;;7.72;;
6342;SDS011;3204;42.698;23.298;2022-09-03T03:28:07;7.65;;;6.93;;
6342;SDS011;3204;42.698;23.298;2022-09-03T03:30:33;7.45;;;6.85;;
6342;SDS011;3204;42.698;23.298;2022-09-03T03:33:02;6.88;;;6.38;;
6342;SDS011;3204;42.698;23.298;2022-09-03T03:35:29;7.10;;;6.60;;
6342;SDS011;3204;42.698;23.298;2022-09-03T03:37:56;6.72;;;6.22;;
6342;SDS011;3204;42.698;23.298;2022-09-03T03:40:22;6.43;;;6.03;;
6342;SDS011;3204;42.698;23.298;2022-09-03T03:42:47;7.18;;;6.68;;
6342;SDS011;3204;42.698;23.298;2022-09-03T03:45:14;6.90;;;6.50;;
6342;SDS011;3204;42.698;23.298;2022-09-03T03:47:39;7.25;;;6.43;;
6342;SDS011;3204;42.698;23.298;2022-09-03T03:50:05;6.95;;;6.50;;
6342;SDS011;3204;42.698;23.298;2022-09-03T03:52:31;7.55;;;6.95;;
6342;SDS011;3204;42.698;23.298;2022-09-03T03:54:56;8.02;;;7.40;;
6342;SDS011;3204;42.698;23.298;2022-09-03T03:57:22;8.02;;;7.28;;
6342;SDS011;3204;42.698;23.298;2022-09-03T03:59:48;7.38;;;6.88;;
6342;SDS011;3204;42.698;23.298;2022-09-03T04:02:14;7.93;;;6.93;;
6342;SDS011;3204;42.698;23.298;2022-09-03T04:04:42;9.32;;;7.05;;
6342;SDS011;3204;42.698;23.298;2022-09-03T04:07:08;7.75;;;7.15;;
6342;SDS011;3204;42.698;23.298;2022-09-03T04:09:33;8.73;;;8.02;;
6342;SDS011;3204;42.698;23.298;2022-09-03T04:11:59;8.07;;;7.38;;
6342;SDS011;3204;42.698;23.298;2022-09-03T04:14:25;7.60;;;7.00;;
6342;SDS011;3204;42.698;23.298;2022-09-03T04:16:51;7.13;;;6.72;;
6342;SDS011;3204;42.698;23.298;2022-09-03T04:19:17;7.85;;;7.05;;
6342;SDS011;3204;42.698;23.298;2022-09-03T04:21:43;7.97;;;7.20;;
6342;SDS011;3204;42.698;23.298;2022-09-03T04:24:09;7.55;;;6.85;;
6342;SDS011;3204;42.698;23.298;2022-09-03T04:26:34;7.53;;;6.97;;
6342;SDS011;3204;42.698;23.298;2022-09-03T04:29:01;8.10;;;7.40;;
6342;SDS011;3204;42.698;23.298;2022-09-03T04:31:29;7.35;;;6.85;;
6342;SDS011;3204;42.698;23.298;2022-09-03T04:33:54;7.82;;;7.22;;
6342;SDS011;3204;42.698;23.298;2022-09-03T04:36:21;7.45;;;6.93;;
6342;SDS011;3204;42.698;23.298;2022-09-03T04:38:49;7.57;;;6.82;;
6342;SDS011;3204;42.698;23.298;2022-09-03T04:41:18;8.38;;;7.78;;
6342;SDS011;3204;42.698;23.298;2022-09-03T04:43:45;8.55;;;7.85;;
6342;SDS011;3204;42.698;23.298;2022-09-03T04:46:13;8.50;;;7.63;;
6342;SDS011;3204;42.698;23.298;2022-09-03T04:48:39;6.97;;;6.57;;
6342;SDS011;3204;42.698;23.298;2022-09-03T04:51:11;7.63;;;7.13;;
6342;SDS011;3204;42.698;23.298;2022-09-03T04:53:43;7.95;;;7.45;;
6342;SDS011;3204;42.698;23.298;2022-09-03T04:56:13;7.28;;;6.88;;
6342;SDS011;3204;42.698;23.298;2022-09-03T04:58:41;7.53;;;6.93;;
6342;SDS011;3204;42.698;23.298;2022-09-03T05:01:11;7.47;;;6.88;;
6342;SDS011;3204;42.698;23.298;2022-09-03T05:03:43;7.95;;;7.28;;
6342;SDS011;3204;42.698;23.298;2022-09-03T05:06:08;7.55;;;7.00;;
6342;SDS011;3204;42.698;23.298;2022-09-03T05:08:34;8.02;;;7.43;;
6342;SDS011;3204;42.698;23.298;2022-09-03T05:11:02;6.75;;;6.35;;
6342;SDS011;3204;42.698;23.298;2022-09-03T05:13:28;6.90;;;6.50;;
6342;SDS011;3204;42.698;23.298;2022-09-03T05:15:58;7.10;;;6.57;;
6342;SDS011;3204;42.698;23.298;2022-09-03T05:18:28;7.25;;;6.68;;
6342;SDS011;3204;42.698;23.298;2022-09-03T05:20:58;6.70;;;6.38;;
6342;SDS011;3204;42.698;23.298;2022-09-03T05:23:27;6.70;;;6.20;;
6342;SDS011;3204;42.698;23.298;2022-09-03T05:25:58;8.65;;;6.57;;
6342;SDS011;3204;42.698;23.298;2022-09-03T05:28:25;6.80;;;6.40;;
6342;SDS011;3204;42.698;23.298;2022-09-03T05:31:02;7.22;;;6.40;;
6342;SDS011;3204;42.698;23.298;2022-09-03T05:33:32;6.90;;;6.40;;
6342;SDS011;3204;42.698;23.298;2022-09-03T05:36:06;6.97;;;5.95;;
6342;SDS011;3204;42.698;23.298;2022-09-03T05:38:34;6.25;;;5.85;;
6342;SDS011;3204;42.698;23.298;2022-09-03T05:41:00;7.30;;;6.70;;
6342;SDS011;3204;42.698;23.298;2022-09-03T05:43:26;6.65;;;6.00;;
6342;SDS011;3204;42.698;23.298;2022-09-03T05:45:57;7.43;;;6.28;;
6342;SDS011;3204;42.698;23.298;2022-09-03T05:48:24;7.43;;;6.72;;
6342;SDS011;3204;42.698;23.298;2022-09-03T05:50:58;6.95;;;6.20;;
6342;SDS011;3204;42.698;23.298;2022-09-03T05:53:25;6.47;;;6.07;;
6342;SDS011;3204;42.698;23.298;2022-09-03T05:55:54;6.30;;;5.85;;
6342;SDS011;3204;42.698;23.298;2022-09-03T05:58:21;7.50;;;6.80;;
6342;SDS011;3204;42.698;23.298;2022-09-03T06:00:46;6.80;;;6.20;;
6342;SDS011;3204;42.698;23.298;2022-09-03T06:03:12;6.72;;;6.32;;
6342;SDS011;3204;42.698;23.298;2022-09-03T06:05:37;7.55;;;6.80;;
6342;SDS011;3204;42.698;23.298;2022-09-03T06:08:03;6.75;;;6.35;;
6342;SDS011;3204;42.698;23.298;2022-09-03T06:10:28;6.97;;;6.57;;
6342;SDS011;3204;42.698;23.298;2022-09-03T06:12:54;9.38;;;6.43;;
6342;SDS011;3204;42.698;23.298;2022-09-03T06:15:27;7.60;;;7.03;;
6342;SDS011;3204;42.698;23.298;2022-09-03T06:17:53;7.97;;;7.30;;
6342;SDS011;3204;42.698;23.298;2022-09-03T06:20:18;7.75;;;7.05;;
6342;SDS011;3204;42.698;23.298;2022-09-03T06:22:47;7.38;;;6.63;;
6342;SDS011;3204;42.698;23.298;2022-09-03T06:25:14;7.90;;;7.25;;
6342;SDS011;3204;42.698;23.298;2022-09-03T06:27:39;7.25;;;6.75;;
6342;SDS011;3204;42.698;23.298;2022-09-03T06:30:05;7.95;;;7.30;;
6342;SDS011;3204;42.698;23.298;2022-09-03T06:32:31;8.30;;;6.97;;
6342;SDS011;3204;42.698;23.298;2022-09-03T06:34:56;8.25;;;6.95;;
6342;SDS011;3204;42.698;23.298;2022-09-03T06:37:22;6.93;;;6.25;;
6342;SDS011;3204;42.698;23.298;2022-09-03T06:39:48;7.40;;;6.90;;
6342;SDS011;3204;42.698;23.298;2022-09-03T06:42:15;8.65;;;7.88;;
6342;SDS011;3204;42.698;23.298;2022-09-03T06:44:40;7.75;;;7.20;;
6342;SDS011;3204;42.698;23.298;2022-09-03T06:47:09;7.40;;;6.80;;
6342;SDS011;3204;42.698;23.298;2022-09-03T06:49:34;9.75;;;6.82;;
6342;SDS011;3204;42.698;23.298;2022-09-03T06:52:00;10.90;;;7.80;;
6342;SDS011;3204;42.698;23.298;2022-09-03T06:54:25;7.40;;;6.75;;
6342;SDS011;3204;42.698;23.298;2022-09-03T06:56:51;7.85;;;7.25;;
6342;SDS011;3204;42.698;23.298;2022-09-03T06:59:17;6.70;;;6.10;;
6342;SDS011;3204;42.698;23.298;2022-09-03T07:01:43;7.65;;;6.60;;
6342;SDS011;3204;42.698;23.298;2022-09-03T07:04:09;7.28;;;6.60;;
6342;SDS011;3204;42.698;23.298;2022-09-03T07:06:37;7.03;;;6.40;;
6342;SDS011;3204;42.698;23.298;2022-09-03T07:09:07;7.03;;;6.60;;
6342;SDS011;3204;42.698;23.298;2022-09-03T07:11:34;7.57;;;6.97;;
6342;SDS011;3204;42.698;23.298;2022-09-03T07:14:00;7.43;;;6.60;;
6342;SDS011;3204;42.698;23.298;2022-09-03T07:16:29;7.22;;;6.68;;
6342;SDS011;3204;42.698;23.298;2022-09-03T07:18:59;6.30;;;5.90;;
6342;SDS011;3204;42.698;23.298;2022-09-03T07:21:26;6.80;;;6.32;;
6342;SDS011;3204;42.698;23.298;2022-09-03T07:23:53;6.13;;;5.82;;
6342;SDS011;3204;42.698;23.298;2022-09-03T07:26:27;6.80;;;6.25;;
6342;SDS011;3204;42.698;23.298;2022-09-03T07:28:54;5.43;;;5.13;;
6342;SDS011;3204;42.698;23.298;2022-09-03T07:31:30;6.18;;;5.88;;
6342;SDS011;3204;42.698;23.298;2022-09-03T07:33:58;6.40;;;6.10;;
6342;SDS011;3204;42.698;23.298;2022-09-03T07:36:30;7.15;;;6.43;;
6342;SDS011;3204;42.698;23.298;2022-09-03T07:38:59;6.93;;;6.43;;
6342;SDS011;3204;42.698;23.298;2022-09-03T07:41:25;7.18;;;6.70;;
6342;SDS011;3204;42.698;23.298;2022-09-03T07:43:51;7.40;;;6.78;;
6342;SDS011;3204;42.698;23.298;2022-09-03T07:46:18;6.85;;;6.45;;
6342;SDS011;3204;42.698;23.298;2022-09-03T07:48:49;8.13;;;6.90;;
6342;SDS011;3204;42.698;23.298;2022-09-03T07:51:16;6.88;;;6.40;;
6342;SDS011;3204;42.698;23.298;2022-09-03T07:53:43;6.85;;;6.35;;
6342;SDS011;3204;42.698;23.298;2022-09-03T07:56:09;8.02;;;7.32;;
6342;SDS011;3204;42.698;23.298;2022-09-03T07:58:36;6.68;;;6.03;;
6342;SDS011;3204;42.698;23.298;2022-09-03T08:01:07;6.93;;;6.45;;
6342;SDS011;3204;42.698;23.298;2022-09-03T08:03:34;6.13;;;5.63;;
6342;SDS011;3204;42.698;23.298;2022-09-03T08:06:04;7.15;;;6.50;;
6342;SDS011;3204;42.698;23.298;2022-09-03T08:08:31;6.18;;;5.78;;
6342;SDS011;3204;42.698;23.298;2022-09-03T08:11:06;6.10;;;5.80;;
6342;SDS011;3204;42.698;23.298;2022-09-03T08:13:37;6.03;;;5.63;;
6342;SDS011;3204;42.698;23.298;2022-09-03T08:16:16;6.65;;;6.32;;
6342;SDS011;3204;42.698;23.298;2022-09-03T08:18:42;5.80;;;5.40;;
6342;SDS011;3204;42.698;23.298;2022-09-03T08:21:11;5.60;;;5.20;;
6342;SDS011;3204;42.698;23.298;2022-09-03T08:23:39;5.13;;;4.72;;
6342;SDS011;3204;42.698;23.298;2022-09-03T08:26:07;5.50;;;5.20;;
6342;SDS011;3204;42.698;23.298;2022-09-03T08:28:33;5.53;;;5.07;;
6342;SDS011;3204;42.698;23.298;2022-09-03T08:31:06;7.18;;;5.25;;
6342;SDS011;3204;42.698;23.298;2022-09-03T08:33:55;5.20;;;4.80;;
6342;SDS011;3204;42.698;23.298;2022-09-03T08:36:23;5.60;;;5.20;;
6342;SDS011;3204;42.698;23.298;2022-09-03T08:38:51;6.10;;;5.28;;
6342;SDS011;3204;42.698;23.298;2022-09-03T08:52:10;6.25;;;5.70;;
6342;SDS011;3204;42.698;23.298;2022-09-03T08:54:47;6.90;;;5.50;;
6342;SDS011;3204;42.698;23.298;2022-09-03T08:57:15;5.03;;;4.82;;
6342;SDS011;3204;42.698;23.298;2022-09-03T08:59:44;5.43;;;5.13;;
6342;SDS011;3204;42.698;23.298;2022-09-03T09:02:16;5.53;;;5.22;;
6342;SDS011;3204;42.698;23.298;2022-09-03T09:04:59;5.82;;;5.50;;
6342;SDS011;3204;42.698;23.298;2022-09-03T09:07:31;5.40;;;5.20;;
6342;SDS011;3204;42.698;23.298;2022-09-03T09:10:23;5.07;;;4.88;;
6342;SDS011;3204;42.698;23.298;2022-09-03T09:18:53;5.65;;;5.35;;
6342;SDS011;3204;42.698;23.298;2022-09-03T09:21:43;5.40;;;5.20;;
6342;SDS011;3204;42.698;23.298;2022-09-03T09:24:23;5.70;;;5.40;;
6342;SDS011;3204;42.698;23.298;2022-09-03T09:26:52;6.10;;;5.70;;
6342;SDS011;3204;42.698;23.298;2022-09-03T09:29:22;5.60;;;5.10;;
6342;SDS011;3204;42.698;23.298;2022-09-03T09:31:49;6.03;;;5.50;;
6342;SDS011;3204;42.698;23.298;2022-09-03T09:34:14;5.00;;;4.60;;
6342;SDS011;3204;42.698;23.298;2022-09-03T09:36:41;4.65;;;4.45;;
6342;SDS011;3204;42.698;23.298;2022-09-03T09:39:11;5.82;;;5.32;;
6342;SDS011;3204;42.698;23.298;2022-09-03T09:41:40;6.10;;;5.38;;
6342;SDS011;3204;42.698;23.298;2022-09-03T09:44:06;5.15;;;4.93;;
6342;SDS011;3204;42.698;23.298;2022-09-03T09:46:36;4.53;;;4.22;;
6342;SDS011;3204;42.698;23.298;2022-09-03T09:49:06;5.05;;;4.75;;
6342;SDS011;3204;42.698;23.298;2022-09-03T09:54:38;5.20;;;5.00;;
6342;SDS011;3204;42.698;23.298;2022-09-03T09:57:05;4.95;;;4.75;;
6342;SDS011;3204;42.698;23.298;2022-09-03T09:59:33;5.03;;;4.65;;
6342;SDS011;3204;42.698;23.298;2022-09-03T10:02:19;4.80;;;4.50;;
6342;SDS011;3204;42.698;23.298;2022-09-03T10:04:58;5.10;;;4.90;;
6342;SDS011;3204;42.698;23.298;2022-09-03T10:07:35;5.50;;;4.95;;
6342;SDS011;3204;42.698;23.298;2022-09-03T10:10:05;5.05;;;4.57;;
6342;SDS011;3204;42.698;23.298;2022-09-03T10:12:50;5.30;;;5.00;;
6342;SDS011;3204;42.698;23.298;2022-09-03T10:18:22;4.15;;;3.95;;
6342;SDS011;3204;42.698;23.298;2022-09-03T10:21:11;4.70;;;4.30;;
6342;SDS011;3204;42.698;23.298;2022-09-03T10:26:49;4.50;;;4.20;;
6342;SDS011;3204;42.698;23.298;2022-09-03T10:29:16;4.50;;;4.25;;
6342;SDS011;3204;42.698;23.298;2022-09-03T10:31:54;4.40;;;4.20;;
6342;SDS011;3204;42.698;23.298;2022-09-03T10:34:33;5.65;;;4.25;;
6342;SDS011;3204;42.698;23.298;2022-09-03T10:39:53;5.70;;;5.40;;
6342;SDS011;3204;42.698;23.298;2022-09-03T10:48:40;3.92;;;3.72;;
6342;SDS011;3204;42.698;23.298;2022-09-03T10:51:27;4.70;;;4.28;;
6342;SDS011;3204;42.698;23.298;2022-09-03T10:54:20;6.00;;;3.95;;
6342;SDS011;3204;42.698;23.298;2022-09-03T11:05:01;4.32;;;4.13;;
6342;SDS011;3204;42.698;23.298;2022-09-03T11:07:45;4.45;;;4.05;;
6342;SDS011;3204;42.698;23.298;2022-09-03T11:13:08;4.13;;;3.92;;
6342;SDS011;3204;42.698;23.298;2022-09-03T11:18:35;3.95;;;3.75;;
6342;SDS011;3204;42.698;23.298;2022-09-03T11:21:08;3.83;;;3.63;;
6342;SDS011;3204;42.698;23.298;2022-09-03T11:23:38;6.70;;;3.90;;
6342;SDS011;3204;42.698;23.298;2022-09-03T11:26:07;3.67;;;3.58;;
6342;SDS011;3204;42.698;23.298;2022-09-03T11:28:55;4.03;;;3.75;;
6342;SDS011;3204;42.698;23.298;2022-09-03T11:31:24;3.85;;;3.55;;
6342;SDS011;3204;42.698;23.298;2022-09-03T11:34:05;4.38;;;4.18;;
6342;SDS011;3204;42.698;23.298;2022-09-03T11:36:41;4.38;;;4.18;;
6342;SDS011;3204;42.698;23.298;2022-09-03T11:39:39;3.97;;;3.78;;
6342;SDS011;3204;42.698;23.298;2022-09-03T11:42:04;4.15;;;3.67;;
6342;SDS011;3204;42.698;23.298;2022-09-03T11:44:43;4.63;;;4.43;;
6342;SDS011;3204;42.698;23.298;2022-09-03T11:47:43;3.78;;;3.58;;
6342;SDS011;3204;42.698;23.298;2022-09-03T11:53:37;3.83;;;3.63;;
6342;SDS011;3204;42.698;23.298;2022-09-03T12:01:00;4.40;;;4.20;;
6342;SDS011;3204;42.698;23.298;2022-09-03T12:03:29;4.43;;;4.15;;
6342;SDS011;3204;42.698;23.298;2022-09-03T12:09:19;6.65;;;5.03;;
6342;SDS011;3204;42.698;23.298;2022-09-03T12:17:55;5.50;;;5.10;;
6342;SDS011;3204;42.698;23.298;2022-09-03T12:20:42;5.63;;;5.20;;
6342;SDS011;3204;42.698;23.298;2022-09-03T12:23:11;5.32;;;4.90;;
6342;SDS011;3204;42.698;23.298;2022-09-03T12:25:49;5.70;;;5.35;;
6342;SDS011;3204;42.698;23.298;2022-09-03T12:28:18;5.28;;;4.97;;
6342;SDS011;3204;42.698;23.298;2022-09-03T12:30:47;5.00;;;4.80;;
6342;SDS011;3204;42.698;23.298;2022-09-03T12:33:17;5.05;;;4.65;;
6342;SDS011;3204;42.698;23.298;2022-09-03T12:35:54;5.38;;;4.93;;
6342;SDS011;3204;42.698;23.298;2022-09-03T12:38:24;5.32;;;4.90;;
6342;SDS011;3204;42.698;23.298;2022-09-03T12:40:50;5.53;;;5.07;;
6342;SDS011;3204;42.698;23.298;2022-09-03T12:43:16;12.82;;;12.20;;
6342;SDS011;3204;42.698;23.298;2022-09-03T12:45:43;7.93;;;5.13;;
6342;SDS011;3204;42.698;23.298;2022-09-03T12:48:13;4.35;;;4.03;;
6342;SDS011;3204;42.698;23.298;2022-09-03T12:50:40;3.83;;;3.53;;
6342;SDS011;3204;42.698;23.298;2022-09-03T12:53:06;3.53;;;3.33;;
6342;SDS011;3204;42.698;23.298;2022-09-03T13:00:36;4.20;;;3.90;;
6342;SDS011;3204;42.698;23.298;2022-09-03T13:05:41;4.28;;;4.07;;
6342;SDS011;3204;42.698;23.298;2022-09-03T13:08:12;5.32;;;3.17;;
6342;SDS011;3204;42.698;23.298;2022-09-03T13:10:49;3.97;;;3.67;;
6342;SDS011;3204;42.698;23.298;2022-09-03T13:13:27;3.50;;;3.40;;
6342;SDS011;3204;42.698;23.298;2022-09-03T13:28:13;3.17;;;2.80;;
6342;SDS011;3204;42.698;23.298;2022-09-03T13:33:39;2.97;;;2.88;;
6342;SDS011;3204;42.698;23.298;2022-09-03T13:36:15;3.15;;;2.95;;
6342;SDS011;3204;42.698;23.298;2022-09-03T13:49:38;4.10;;;3.80;;
6342;SDS011;3204;42.698;23.298;2022-09-03T14:09:10;4.00;;;3.78;;
6342;SDS011;3204;42.698;23.298;2022-09-03T14:11:45;3.83;;;3.63;;
6342;SDS011;3204;42.698;23.298;2022-09-03T14:17:42;4.05;;;3.85;;
6342;SDS011;3204;42.698;23.298;2022-09-03T14:26:05;3.90;;;3.70;;
6342;SDS011;3204;42.698;23.298;2022-09-03T14:28:35;4.22;;;4.03;;
6342;SDS011;3204;42.698;23.298;2022-09-03T14:33:38;3.80;;;3.60;;
6342;SDS011;3204;42.698;23.298;2022-09-03T14:36:33;4.05;;;3.85;;
6342;SDS011;3204;42.698;23.298;2022-09-03T14:39:22;4.28;;;3.95;;
6342;SDS011;3204;42.698;23.298;2022-09-03T14:41:58;3.70;;;3.58;;
6342;SDS011;3204;42.698;23.298;2022-09-03T14:55:11;3.38;;;2.97;;
6342;SDS011;3204;42.698;23.298;2022-09-03T14:58:20;3.20;;;3.00;;
6342;SDS011;3204;42.698;23.298;2022-09-03T15:11:56;3.45;;;3.25;;
6342;SDS011;3204;42.698;23.298;2022-09-03T15:20:08;3.83;;;2.95;;
6342;SDS011;3204;42.698;23.298;2022-09-03T15:23:18;3.42;;;3.22;;
6342;SDS011;3204;42.698;23.298;2022-09-03T15:31:32;3.88;;;3.67;;
6342;SDS011;3204;42.698;23.298;2022-09-03T15:34:04;4.05;;;3.33;;
6342;SDS011;3204;42.698;23.298;2022-09-03T15:36:41;3.63;;;3.42;;
6342;SDS011;3204;42.698;23.298;2022-09-03T15:39:16;4.00;;;3.80;;
6342;SDS011;3204;42.698;23.298;2022-09-03T15:44:33;4.13;;;3.92;;
6342;SDS011;3204;42.698;23.298;2022-09-03T15:47:04;4.10;;;3.78;;
6342;SDS011;3204;42.698;23.298;2022-09-03T15:55:25;4.78;;;4.10;;
6342;SDS011;3204;42.698;23.298;2022-09-03T15:58:09;4.68;;;4.32;;
6342;SDS011;3204;42.698;23.298;2022-09-03T16:01:02;4.50;;;4.30;;
6342;SDS011;3204;42.698;23.298;2022-09-03T16:03:37;4.43;;;4.03;;
6342;SDS011;3204;42.698;23.298;2022-09-03T16:06:32;4.32;;;3.90;;
6342;SDS011;3204;42.698;23.298;2022-09-03T16:09:24;4.70;;;4.40;;
6342;SDS011;3204;42.698;23.298;2022-09-03T16:12:04;4.70;;;4.30;;
6342;SDS011;3204;42.698;23.298;2022-09-03T16:14:41;5.07;;;4.78;;
6342;SDS011;3204;42.698;23.298;2022-09-03T16:20:22;5.63;;;5.15;;
6342;SDS011;3204;42.698;23.298;2022-09-03T16:25:30;5.82;;;5.40;;
6342;SDS011;3204;42.698;23.298;2022-09-03T16:28:03;5.03;;;4.50;;
6342;SDS011;3204;42.698;23.298;2022-09-03T16:35:47;5.63;;;5.20;;
6342;SDS011;3204;42.698;23.298;2022-09-03T16:38:33;5.72;;;5.43;;
6342;SDS011;3204;42.698;23.298;2022-09-03T16:41:28;7.93;;;7.30;;
6342;SDS011;3204;42.698;23.298;2022-09-03T16:44:08;7.10;;;6.40;;
6342;SDS011;3204;42.698;23.298;2022-09-03T16:46:49;5.78;;;5.47;;
6342;SDS011;3204;42.698;23.298;2022-09-03T16:49:44;6.28;;;5.97;;
6342;SDS011;3204;42.698;23.298;2022-09-03T16:55:22;6.85;;;6.22;;
6342;SDS011;3204;42.698;23.298;2022-09-03T17:00:52;7.10;;;6.65;;
6342;SDS011;3204;42.698;23.298;2022-09-03T17:04:12;6.60;;;6.20;;
6342;SDS011;3204;42.698;23.298;2022-09-03T17:09:57;6.43;;;5.93;;
6342;SDS011;3204;42.698;23.298;2022-09-03T17:15:24;6.82;;;6.50;;
6342;SDS011;3204;42.698;23.298;2022-09-03T17:18:03;7.38;;;6.88;;
6342;SDS011;3204;42.698;23.298;2022-09-03T17:25:50;6.35;;;6.05;;
6342;SDS011;3204;42.698;23.298;2022-09-03T17:36:11;6.85;;;6.45;;
6342;SDS011;3204;42.698;23.298;2022-09-03T17:48:58;7.45;;;7.05;;
6342;SDS011;3204;42.698;23.298;2022-09-03T17:57:04;7.68;;;7.25;;
6342;SDS011;3204;42.698;23.298;2022-09-03T17:59:41;7.35;;;6.95;;
6342;SDS011;3204;42.698;23.298;2022-09-03T18:05:25;8.90;;;7.78;;
6342;SDS011;3204;42.698;23.298;2022-09-03T18:16:31;8.55;;;7.82;;
6342;SDS011;3204;42.698;23.298;2022-09-03T18:21:58;8.45;;;7.95;;
6342;SDS011;3204;42.698;23.298;2022-09-03T18:24:53;7.75;;;7.35;;
6342;SDS011;3204;42.698;23.298;2022-09-03T18:27:45;8.10;;;7.50;;
6342;SDS011;3204;42.698;23.298;2022-09-03T18:30:36;9.10;;;8.40;;
6342;SDS011;3204;42.698;23.298;2022-09-03T18:33:22;8.85;;;8.07;;
6342;SDS011;3204;42.698;23.298;2022-09-03T18:36:08;8.68;;;8.10;;
6342;SDS011;3204;42.698;23.298;2022-09-03T18:38:54;8.55;;;7.90;;
6342;SDS011;3204;42.698;23.298;2022-09-03T19:05:55;8.65;;;8.05;;
6342;SDS011;3204;42.698;23.298;2022-09-03T19:24:12;10.95;;;9.13;;
6342;SDS011;3204;42.698;23.298;2022-09-03T19:32:58;13.57;;;10.48;;
6342;SDS011;3204;42.698;23.298;2022-09-03T19:38:56;9.27;;;8.38;;
6342;SDS011;3204;42.698;23.298;2022-09-03T19:42:41;8.80;;;8.20;;
6342;SDS011;3204;42.698;23.298;2022-09-03T19:45:10;8.27;;;7.63;;
6342;SDS011;3204;42.698;23.298;2022-09-03T19:51:14;10.30;;;9.23;;
6342;SDS011;3204;42.698;23.298;2022-09-03T19:54:01;13.80;;;10.35;;
6342;SDS011;3204;42.698;23.298;2022-09-03T19:56:49;11.35;;;9.30;;
6342;SDS011;3204;42.698;23.298;2022-09-03T19:59:36;11.45;;;8.68;;
6342;SDS011;3204;42.698;23.298;2022-09-03T20:02:22;10.45;;;9.27;;
6342;SDS011;3204;42.698;23.298;2022-09-03T20:05:09;9.55;;;8.85;;
6342;SDS011;3204;42.698;23.298;2022-09-03T20:07:59;14.30;;;9.65;;
6342;SDS011;3204;42.698;23.298;2022-09-03T20:10:43;16.15;;;9.93;;
6342;SDS011;3204;42.698;23.298;2022-09-03T20:13:16;10.95;;;9.95;;
6342;SDS011;3204;42.698;23.298;2022-09-03T20:24:11;15.73;;;10.50;;
6342;SDS011;3204;42.698;23.298;2022-09-03T20:30:10;13.40;;;9.05;;
6342;SDS011;3204;42.698;23.298;2022-09-03T20:35:33;10.30;;;8.63;;
6342;SDS011;3204;42.698;23.298;2022-09-03T20:38:09;8.18;;;7.57;;
6342;SDS011;3204;42.698;23.298;2022-09-03T20:43:34;8.32;;;7.72;;
6342;SDS011;3204;42.698;23.298;2022-09-03T20:46:19;8.90;;;8.18;;
6342;SDS011;3204;42.698;23.298;2022-09-03T20:52:00;10.98;;;8.35;;
6342;SDS011;3204;42.698;23.298;2022-09-03T20:54:34;12.13;;;9.07;;
6342;SDS011;3204;42.698;23.298;2022-09-03T20:57:24;9.93;;;9.00;;
6342;SDS011;3204;42.698;23.298;2022-09-03T21:00:08;18.52;;;9.80;;
6342;SDS011;3204;42.698;23.298;2022-09-03T21:02:53;15.80;;;9.95;;
6342;SDS011;3204;42.698;23.298;2022-09-03T21:25:19;13.18;;;9.02;;
6342;SDS011;3204;42.698;23.298;2022-09-03T21:27:54;19.55;;;10.50;;
6342;SDS011;3204;42.698;23.298;2022-09-03T21:30:25;16.70;;;11.20;;
6342;SDS011;3204;42.698;23.298;2022-09-03T21:33:08;16.27;;;11.55;;
6342;SDS011;3204;42.698;23.298;2022-09-03T21:35:44;19.40;;;11.68;;
6342;SDS011;3204;42.698;23.298;2022-09-03T21:38:16;21.88;;;12.48;;
6342;SDS011;3204;42.698;23.298;2022-09-03T21:40:49;20.20;;;13.07;;
6342;SDS011;3204;42.698;23.298;2022-09-03T21:43:28;15.23;;;12.18;;
6342;SDS011;3204;42.698;23.298;2022-09-03T21:46:12;13.82;;;11.20;;
6342;SDS011;3204;42.698;23.298;2022-09-03T21:48:49;15.90;;;11.50;;
6342;SDS011;3204;42.698;23.298;2022-09-03T21:52:16;15.27;;;11.73;;
6342;SDS011;3204;42.698;23.298;2022-09-03T21:54:17;12.70;;;11.45;;
6342;SDS011;3204;42.698;23.298;2022-09-03T22:02:29;16.80;;;12.32;;
6342;SDS011;3204;42.698;23.298;2022-09-03T22:04:56;13.85;;;11.43;;
6342;SDS011;3204;42.698;23.298;2022-09-03T22:07:58;17.63;;;11.65;;